createdAt,value
2017-01-01T00:09:34.893Z,1016.9
2017-01-01T00:19:48.932Z,1016.7
2017-01-01T00:30:02.519Z,1016.7
2017-01-01T00:40:17.236Z,1016.5
2017-01-01T00:50:32.096Z,1016.3
2017-01-01T01:00:46.076Z,1016.1
2017-01-01T01:11:00.887Z,1016.1
2017-01-01T01:21:14.194Z,1016
2017-01-01T01:31:28.494Z,1016
2017-01-01T01:41:42.633Z,1016
2017-01-01T01:51:56.875Z,1015.9
2017-01-01T02:02:10.507Z,1015.7
2017-01-01T02:12:24.691Z,1015.7
2017-01-01T02:22:37.796Z,1015.5
2017-01-01T02:32:52.198Z,1015.2
2017-01-01T02:43:05.730Z,1015.1
2017-01-01T02:53:19.682Z,1015.1
2017-01-01T03:03:33.685Z,1014.8
2017-01-01T03:13:47.131Z,1014.8
2017-01-01T03:24:01.992Z,1014.7
2017-01-01T03:34:15.323Z,1014.7
2017-01-01T03:44:28.361Z,1014.6
2017-01-01T03:54:41.522Z,1014.5
2017-01-01T04:04:54.434Z,1014.5
2017-01-01T04:15:08.517Z,1014.3
2017-01-01T04:25:22.560Z,1014.1
2017-01-01T04:35:35.974Z,1014.2
2017-01-01T04:45:49.307Z,1014
2017-01-01T04:56:03.937Z,1013.7
2017-01-01T05:06:17.196Z,1013.7
2017-01-01T05:16:31.937Z,1013.6
2017-01-01T05:26:45.146Z,1013.5
2017-01-01T05:36:58.521Z,1013.4
2017-01-01T05:47:13.029Z,1013.3
2017-01-01T05:57:26.227Z,1013.2
2017-01-01T06:07:39.481Z,1013.2
2017-01-01T06:17:52.535Z,1013
2017-01-01T06:28:06.707Z,1012.9
2017-01-01T06:38:19.983Z,1012.8
2017-01-01T06:48:33.280Z,1012.7
2017-01-01T06:58:47.714Z,1012.7
2017-01-01T07:09:02.594Z,1012.5
2017-01-01T07:19:16.114Z,1012.4
2017-01-01T07:29:28.982Z,1012.4
2017-01-01T07:39:42.595Z,1012.4
2017-01-01T07:49:55.918Z,1012.3
2017-01-01T08:00:09.934Z,1012.3
2017-01-01T08:10:23.804Z,1012.2
2017-01-01T08:20:37.888Z,1012.2
2017-01-01T08:30:51.550Z,1012.2
2017-01-01T08:51:19.388Z,1012
2017-01-01T09:01:33.017Z,1012
2017-01-01T09:11:47.058Z,1012
2017-01-01T09:22:01.796Z,1011.9
2017-01-01T09:32:16.295Z,1011.7
2017-01-01T09:42:29.904Z,1011.6
2017-01-01T09:52:43.771Z,1011.5
2017-01-01T10:02:57.768Z,1011.5
2017-01-01T10:13:11.573Z,1011.3
2017-01-01T10:23:26.102Z,1011.2
2017-01-01T10:33:40.649Z,1011.2
2017-01-01T10:43:54.113Z,1011.1
2017-01-01T10:54:08.328Z,1011
2017-01-01T11:04:22.401Z,1010.9
2017-01-01T11:14:35.726Z,1010.6
2017-01-01T11:24:48.801Z,1010.4
2017-01-01T11:35:02.160Z,1010.3
2017-01-01T11:45:16.303Z,1010.3
2017-01-01T11:55:31.252Z,1010.3
2017-01-01T12:05:44.818Z,1010
2017-01-01T12:15:59.052Z,1009.9
2017-01-01T12:26:14.205Z,1009.8
2017-01-01T12:36:28.614Z,1009.6
2017-01-01T12:46:43.725Z,1009.6
2017-01-01T12:56:57.979Z,1009.7
2017-01-01T13:07:12.494Z,1009.6
2017-01-01T13:17:25.859Z,1009.5
2017-01-01T13:27:39.436Z,1009.4
2017-01-01T13:37:53.791Z,1009.6
2017-01-01T13:48:07.869Z,1009.5
2017-01-01T13:58:21.914Z,1009.5
2017-01-01T14:08:36.523Z,1009.5
2017-01-01T14:18:49.685Z,1009.8
2017-01-01T14:29:03.750Z,1009.6
2017-01-01T14:39:18.121Z,1009.7
2017-01-01T14:49:32.658Z,1009.5
2017-01-01T14:59:47.325Z,1009.6
2017-01-01T15:10:01.743Z,1009.7
2017-01-01T15:20:14.811Z,1009.7
2017-01-01T15:30:28.166Z,1009.6
2017-01-01T15:40:42.210Z,1009.7
2017-01-01T15:50:56.519Z,1009.6
2017-01-01T16:01:09.764Z,1009.6
2017-01-01T16:11:24.841Z,1009.5
2017-01-01T16:21:39.381Z,1009.5
2017-01-01T16:31:52.898Z,1009.5
2017-01-01T16:42:06.944Z,1009.7
2017-01-01T16:52:21.883Z,1009.7
2017-01-01T17:02:35.992Z,1009.6
2017-01-01T17:12:49.833Z,1009.6
2017-01-01T17:23:03.076Z,1009.7
2017-01-01T17:33:16.497Z,1009.6
2017-01-01T17:43:31.280Z,1009.4
2017-01-01T17:53:44.483Z,1009.5
2017-01-01T18:03:58.121Z,1009.6
2017-01-01T18:14:11.900Z,1009.6
2017-01-01T18:24:26.816Z,1009.8
2017-01-01T18:34:41.806Z,1009.7
2017-01-01T18:44:55.786Z,1009.9
2017-01-01T18:55:08.793Z,1009.8
2017-01-01T19:05:21.927Z,1009.8
2017-01-01T19:15:36.841Z,1009.9
2017-01-01T19:25:50.331Z,1009.8
2017-01-01T19:36:03.542Z,1009.8
2017-01-01T19:46:16.794Z,1009.9
2017-01-01T19:56:31.159Z,1009.9
2017-01-01T20:06:45.546Z,1010
2017-01-01T20:17:00.527Z,1010.1
2017-01-01T20:27:15.591Z,1010.2
2017-01-01T20:37:29.036Z,1010.3
2017-01-01T20:47:42.188Z,1010.3
2017-01-01T20:57:55.985Z,1010.2
2017-01-01T21:08:09.603Z,1010.3
2017-01-01T21:18:24.607Z,1010.3
2017-01-01T21:28:39.196Z,1010.3
2017-01-01T21:38:52.481Z,1010.4
2017-01-01T21:49:07.104Z,1010.5
2017-01-01T21:59:22.057Z,1010.5
2017-01-01T22:09:36.938Z,1010.5
2017-01-01T22:19:50.802Z,1010.6
2017-01-01T22:30:04.770Z,1010.6
2017-01-01T22:40:19.646Z,1010.7
2017-01-01T22:50:33.299Z,1010.7
2017-01-01T23:00:47.386Z,1010.8
2017-01-01T23:11:01.748Z,1010.8
2017-01-01T23:21:14.741Z,1010.8
2017-01-01T23:31:28.866Z,1010.8
2017-01-01T23:41:41.865Z,1010.8
2017-01-01T23:51:56.366Z,1010.8
